sensor_id;sensor_type;location;lat;lon;timestamp;P1;durP1;ratioP1;P2;durP2;ratioP2
58196;SDS011;43999;51.660;5.616;2023-01-24T00:00:04;17.48;;;13.88;;
58196;SDS011;43999;51.660;5.616;2023-01-24T00:02:35;19.00;;;13.98;;
58196;SDS011;43999;51.660;5.616;2023-01-24T00:05:03;16.85;;;14.00;;
58196;SDS011;43999;51.660;5.616;2023-01-24T00:07:33;17.98;;;14.27;;
58196;SDS011;43999;51.660;5.616;2023-01-24T00:10:01;19.50;;;15.45;;
58196;SDS011;43999;51.660;5.616;2023-01-24T00:12:32;19.13;;;15.80;;
58196;SDS011;43999;51.660;5.616;2023-01-24T00:14:59;17.35;;;14.18;;
58196;SDS011;43999;51.660;5.616;2023-01-24T00:17:29;17.58;;;13.73;;
58196;SDS011;43999;51.660;5.616;2023-01-24T00:19:57;18.02;;;16.02;;
58196;SDS011;43999;51.660;5.616;2023-01-24T00:22:27;18.00;;;14.98;;
58196;SDS011;43999;51.660;5.616;2023-01-24T00:24:54;19.92;;;14.15;;
58196;SDS011;43999;51.660;5.616;2023-01-24T00:27:22;19.15;;;15.48;;
58196;SDS011;43999;51.660;5.616;2023-01-24T00:29:51;19.17;;;16.83;;
58196;SDS011;43999;51.660;5.616;2023-01-24T00:32:19;16.70;;;14.55;;
58196;SDS011;43999;51.660;5.616;2023-01-24T00:34:47;20.40;;;16.00;;
58196;SDS011;43999;51.660;5.616;2023-01-24T00:37:15;15.05;;;12.68;;
58196;SDS011;43999;51.660;5.616;2023-01-24T00:39:43;16.55;;;13.13;;
58196;SDS011;43999;51.660;5.616;2023-01-24T00:42:12;15.88;;;12.15;;
58196;SDS011;43999;51.660;5.616;2023-01-24T00:44:48;18.02;;;14.27;;
58196;SDS011;43999;51.660;5.616;2023-01-24T00:47:16;19.70;;;13.45;;
58196;SDS011;43999;51.660;5.616;2023-01-24T00:49:45;17.20;;;14.23;;
58196;SDS011;43999;51.660;5.616;2023-01-24T00:52:14;17.35;;;12.30;;
58196;SDS011;43999;51.660;5.616;2023-01-24T00:54:43;17.75;;;12.45;;
58196;SDS011;43999;51.660;5.616;2023-01-24T00:57:13;19.10;;;13.25;;
58196;SDS011;43999;51.660;5.616;2023-01-24T00:59:42;15.95;;;12.68;;
58196;SDS011;43999;51.660;5.616;2023-01-24T01:02:10;19.42;;;14.52;;
58196;SDS011;43999;51.660;5.616;2023-01-24T01:04:42;15.88;;;13.15;;
58196;SDS011;43999;51.660;5.616;2023-01-24T01:07:10;14.60;;;10.95;;
58196;SDS011;43999;51.660;5.616;2023-01-24T01:09:38;16.70;;;12.88;;
58196;SDS011;43999;51.660;5.616;2023-01-24T01:12:06;14.13;;;12.52;;
58196;SDS011;43999;51.660;5.616;2023-01-24T01:14:35;19.52;;;13.05;;
58196;SDS011;43999;51.660;5.616;2023-01-24T01:17:05;15.00;;;13.38;;
58196;SDS011;43999;51.660;5.616;2023-01-24T01:19:33;17.33;;;12.93;;
58196;SDS011;43999;51.660;5.616;2023-01-24T01:22:02;17.38;;;12.90;;
58196;SDS011;43999;51.660;5.616;2023-01-24T01:24:30;16.23;;;12.25;;
58196;SDS011;43999;51.660;5.616;2023-01-24T01:26:59;17.40;;;13.93;;
58196;SDS011;43999;51.660;5.616;2023-01-24T01:29:27;18.63;;;14.27;;
58196;SDS011;43999;51.660;5.616;2023-01-24T01:32:04;19.77;;;14.27;;
58196;SDS011;43999;51.660;5.616;2023-01-24T01:34:32;17.88;;;13.90;;
58196;SDS011;43999;51.660;5.616;2023-01-24T01:37:05;18.23;;;13.15;;
58196;SDS011;43999;51.660;5.616;2023-01-24T01:39:33;21.05;;;15.35;;
58196;SDS011;43999;51.660;5.616;2023-01-24T01:42:01;18.15;;;14.60;;
58196;SDS011;43999;51.660;5.616;2023-01-24T01:44:30;18.98;;;14.57;;
58196;SDS011;43999;51.660;5.616;2023-01-24T01:49:46;17.77;;;14.95;;
58196;SDS011;43999;51.660;5.616;2023-01-24T01:52:39;17.67;;;14.48;;
58196;SDS011;43999;51.660;5.616;2023-01-24T01:55:16;19.92;;;14.93;;
58196;SDS011;43999;51.660;5.616;2023-01-24T01:57:48;18.00;;;14.38;;
58196;SDS011;43999;51.660;5.616;2023-01-24T02:00:19;17.15;;;14.73;;
58196;SDS011;43999;51.660;5.616;2023-01-24T02:03:02;22.38;;;15.65;;
58196;SDS011;43999;51.660;5.616;2023-01-24T02:05:59;17.55;;;13.68;;
58196;SDS011;43999;51.660;5.616;2023-01-24T02:08:27;17.98;;;14.43;;
58196;SDS011;43999;51.660;5.616;2023-01-24T02:10:58;19.27;;;14.43;;
58196;SDS011;43999;51.660;5.616;2023-01-24T02:13:46;21.02;;;15.75;;
58196;SDS011;43999;51.660;5.616;2023-01-24T02:16:15;19.02;;;14.18;;
58196;SDS011;43999;51.660;5.616;2023-01-24T02:18:44;20.85;;;15.70;;
58196;SDS011;43999;51.660;5.616;2023-01-24T02:21:13;19.67;;;14.57;;
58196;SDS011;43999;51.660;5.616;2023-01-24T02:26:50;21.23;;;15.15;;
58196;SDS011;43999;51.660;5.616;2023-01-24T02:29:18;20.42;;;17.90;;
58196;SDS011;43999;51.660;5.616;2023-01-24T02:34:33;18.90;;;14.68;;
58196;SDS011;43999;51.660;5.616;2023-01-24T02:37:06;16.92;;;13.77;;
58196;SDS011;43999;51.660;5.616;2023-01-24T02:42:21;22.08;;;17.75;;
58196;SDS011;43999;51.660;5.616;2023-01-24T02:47:56;19.77;;;15.05;;
58196;SDS011;43999;51.660;5.616;2023-01-24T02:50:26;20.55;;;16.38;;
58196;SDS011;43999;51.660;5.616;2023-01-24T02:53:16;18.92;;;14.93;;
58196;SDS011;43999;51.660;5.616;2023-01-24T02:59:03;18.73;;;14.98;;
58196;SDS011;43999;51.660;5.616;2023-01-24T03:01:33;18.13;;;15.52;;
58196;SDS011;43999;51.660;5.616;2023-01-24T03:04:02;17.25;;;13.50;;
58196;SDS011;43999;51.660;5.616;2023-01-24T03:06:31;21.63;;;15.93;;
58196;SDS011;43999;51.660;5.616;2023-01-24T03:08:59;18.88;;;16.63;;
58196;SDS011;43999;51.660;5.616;2023-01-24T03:11:47;18.52;;;16.00;;
58196;SDS011;43999;51.660;5.616;2023-01-24T03:14:16;18.15;;;15.32;;
58196;SDS011;43999;51.660;5.616;2023-01-24T03:17:04;20.02;;;15.75;;
58196;SDS011;43999;51.660;5.616;2023-01-24T03:19:57;19.65;;;16.27;;
58196;SDS011;43999;51.660;5.616;2023-01-24T03:22:43;19.30;;;15.00;;
58196;SDS011;43999;51.660;5.616;2023-01-24T03:25:29;20.98;;;17.20;;
58196;SDS011;43999;51.660;5.616;2023-01-24T03:28:22;23.05;;;16.40;;
58196;SDS011;43999;51.660;5.616;2023-01-24T03:33:55;23.58;;;17.52;;
58196;SDS011;43999;51.660;5.616;2023-01-24T03:39:12;18.35;;;14.88;;
58196;SDS011;43999;51.660;5.616;2023-01-24T03:41:59;17.98;;;15.15;;
58196;SDS011;43999;51.660;5.616;2023-01-24T03:44:27;18.80;;;14.57;;
58196;SDS011;43999;51.660;5.616;2023-01-24T03:46:55;19.67;;;16.23;;
58196;SDS011;43999;51.660;5.616;2023-01-24T03:49:29;18.67;;;16.65;;
58196;SDS011;43999;51.660;5.616;2023-01-24T03:52:15;20.77;;;16.45;;
58196;SDS011;43999;51.660;5.616;2023-01-24T03:55:04;17.92;;;15.70;;
58196;SDS011;43999;51.660;5.616;2023-01-24T03:57:34;20.23;;;16.50;;
58196;SDS011;43999;51.660;5.616;2023-01-24T04:00:13;20.92;;;16.80;;
58196;SDS011;43999;51.660;5.616;2023-01-24T04:02:49;19.92;;;16.73;;
58196;SDS011;43999;51.660;5.616;2023-01-24T04:05:21;20.65;;;17.58;;
58196;SDS011;43999;51.660;5.616;2023-01-24T04:07:50;21.65;;;16.52;;
58196;SDS011;43999;51.660;5.616;2023-01-24T04:10:28;19.27;;;15.68;;
58196;SDS011;43999;51.660;5.616;2023-01-24T04:12:58;19.65;;;15.20;;
58196;SDS011;43999;51.660;5.616;2023-01-24T04:15:32;20.60;;;16.45;;
58196;SDS011;43999;51.660;5.616;2023-01-24T04:18:28;18.92;;;15.48;;
58196;SDS011;43999;51.660;5.616;2023-01-24T04:21:00;24.33;;;16.90;;
58196;SDS011;43999;51.660;5.616;2023-01-24T04:23:29;21.42;;;15.25;;
58196;SDS011;43999;51.660;5.616;2023-01-24T04:25:58;21.02;;;15.80;;
58196;SDS011;43999;51.660;5.616;2023-01-24T04:28:30;21.15;;;15.02;;
58196;SDS011;43999;51.660;5.616;2023-01-24T04:31:03;18.75;;;16.33;;
58196;SDS011;43999;51.660;5.616;2023-01-24T04:34:00;17.48;;;14.50;;
58196;SDS011;43999;51.660;5.616;2023-01-24T04:36:37;17.30;;;14.95;;
58196;SDS011;43999;51.660;5.616;2023-01-24T04:39:05;18.65;;;15.98;;
58196;SDS011;43999;51.660;5.616;2023-01-24T04:41:57;19.92;;;16.17;;
58196;SDS011;43999;51.660;5.616;2023-01-24T04:44:26;21.67;;;15.45;;
58196;SDS011;43999;51.660;5.616;2023-01-24T04:46:56;17.83;;;14.82;;
58196;SDS011;43999;51.660;5.616;2023-01-24T04:49:28;15.77;;;14.02;;
58196;SDS011;43999;51.660;5.616;2023-01-24T04:51:58;18.52;;;16.25;;
58196;SDS011;43999;51.660;5.616;2023-01-24T04:54:44;18.08;;;15.80;;
58196;SDS011;43999;51.660;5.616;2023-01-24T04:57:13;18.65;;;14.88;;
58196;SDS011;43999;51.660;5.616;2023-01-24T04:59:42;21.15;;;16.02;;
58196;SDS011;43999;51.660;5.616;2023-01-24T05:02:22;19.83;;;15.93;;
58196;SDS011;43999;51.660;5.616;2023-01-24T05:04:51;19.92;;;15.98;;
58196;SDS011;43999;51.660;5.616;2023-01-24T05:07:20;19.00;;;17.00;;
58196;SDS011;43999;51.660;5.616;2023-01-24T05:09:57;20.40;;;15.88;;
58196;SDS011;43999;51.660;5.616;2023-01-24T05:12:26;19.67;;;15.73;;
58196;SDS011;43999;51.660;5.616;2023-01-24T05:14:58;20.85;;;16.15;;
58196;SDS011;43999;51.660;5.616;2023-01-24T05:17:26;19.25;;;15.95;;
58196;SDS011;43999;51.660;5.616;2023-01-24T05:20:02;21.00;;;16.05;;
58196;SDS011;43999;51.660;5.616;2023-01-24T05:22:31;19.35;;;17.25;;
58196;SDS011;43999;51.660;5.616;2023-01-24T05:25:00;21.27;;;17.70;;
58196;SDS011;43999;51.660;5.616;2023-01-24T05:27:28;20.33;;;15.57;;
58196;SDS011;43999;51.660;5.616;2023-01-24T05:30:00;19.98;;;15.15;;
58196;SDS011;43999;51.660;5.616;2023-01-24T05:32:29;19.10;;;15.95;;
58196;SDS011;43999;51.660;5.616;2023-01-24T05:34:56;22.00;;;17.60;;
58196;SDS011;43999;51.660;5.616;2023-01-24T05:37:26;21.42;;;16.15;;
58196;SDS011;43999;51.660;5.616;2023-01-24T05:39:57;21.13;;;18.85;;
58196;SDS011;43999;51.660;5.616;2023-01-24T05:42:29;20.67;;;16.48;;
58196;SDS011;43999;51.660;5.616;2023-01-24T05:44:57;21.85;;;18.00;;
58196;SDS011;43999;51.660;5.616;2023-01-24T05:47:27;22.13;;;18.30;;
58196;SDS011;43999;51.660;5.616;2023-01-24T05:49:59;21.63;;;17.00;;
58196;SDS011;43999;51.660;5.616;2023-01-24T05:52:27;19.75;;;17.13;;
58196;SDS011;43999;51.660;5.616;2023-01-24T05:54:55;20.17;;;17.25;;
58196;SDS011;43999;51.660;5.616;2023-01-24T05:57:28;23.70;;;19.52;;
58196;SDS011;43999;51.660;5.616;2023-01-24T06:00:15;16.63;;;14.83;;
58196;SDS011;43999;51.660;5.616;2023-01-24T06:03:04;19.55;;;15.95;;
58196;SDS011;43999;51.660;5.616;2023-01-24T06:05:33;22.45;;;16.63;;
58196;SDS011;43999;51.660;5.616;2023-01-24T06:08:03;21.98;;;16.65;;
58196;SDS011;43999;51.660;5.616;2023-01-24T06:10:32;21.88;;;18.10;;
58196;SDS011;43999;51.660;5.616;2023-01-24T06:13:03;21.00;;;18.75;;
58196;SDS011;43999;51.660;5.616;2023-01-24T06:15:34;18.90;;;16.70;;
58196;SDS011;43999;51.660;5.616;2023-01-24T06:18:04;24.27;;;19.10;;
58196;SDS011;43999;51.660;5.616;2023-01-24T06:20:33;21.05;;;18.05;;
58196;SDS011;43999;51.660;5.616;2023-01-24T06:23:07;25.27;;;19.52;;
58196;SDS011;43999;51.660;5.616;2023-01-24T06:25:44;25.02;;;18.58;;
58196;SDS011;43999;51.660;5.616;2023-01-24T06:28:13;25.80;;;19.58;;
58196;SDS011;43999;51.660;5.616;2023-01-24T06:31:02;21.63;;;17.55;;
58196;SDS011;43999;51.660;5.616;2023-01-24T06:34:07;24.50;;;18.63;;
58196;SDS011;43999;51.660;5.616;2023-01-24T06:37:15;22.67;;;18.63;;
58196;SDS011;43999;51.660;5.616;2023-01-24T06:40:11;22.15;;;17.33;;
58196;SDS011;43999;51.660;5.616;2023-01-24T06:42:41;20.90;;;17.85;;
58196;SDS011;43999;51.660;5.616;2023-01-24T06:45:10;22.95;;;19.13;;
58196;SDS011;43999;51.660;5.616;2023-01-24T06:47:39;24.42;;;18.15;;
58196;SDS011;43999;51.660;5.616;2023-01-24T06:50:13;23.85;;;20.17;;
58196;SDS011;43999;51.660;5.616;2023-01-24T06:52:49;26.63;;;20.80;;
58196;SDS011;43999;51.660;5.616;2023-01-24T06:55:21;23.38;;;18.40;;
58196;SDS011;43999;51.660;5.616;2023-01-24T06:57:58;22.50;;;19.90;;
58196;SDS011;43999;51.660;5.616;2023-01-24T07:00:28;24.77;;;19.58;;
58196;SDS011;43999;51.660;5.616;2023-01-24T07:03:00;21.88;;;18.55;;
58196;SDS011;43999;51.660;5.616;2023-01-24T07:05:38;23.60;;;18.90;;
58196;SDS011;43999;51.660;5.616;2023-01-24T07:08:07;23.58;;;17.52;;
58196;SDS011;43999;51.660;5.616;2023-01-24T07:10:36;25.38;;;19.70;;
58196;SDS011;43999;51.660;5.616;2023-01-24T07:13:11;21.48;;;17.67;;
58196;SDS011;43999;51.660;5.616;2023-01-24T07:15:46;23.08;;;18.98;;
58196;SDS011;43999;51.660;5.616;2023-01-24T07:18:17;22.92;;;19.02;;
58196;SDS011;43999;51.660;5.616;2023-01-24T07:20:46;23.02;;;18.42;;
58196;SDS011;43999;51.660;5.616;2023-01-24T07:23:21;24.15;;;18.65;;
58196;SDS011;43999;51.660;5.616;2023-01-24T07:25:58;22.65;;;19.10;;
58196;SDS011;43999;51.660;5.616;2023-01-24T07:28:30;21.75;;;19.30;;
58196;SDS011;43999;51.660;5.616;2023-01-24T07:31:00;23.40;;;18.80;;
58196;SDS011;43999;51.660;5.616;2023-01-24T07:33:32;25.27;;;19.33;;
58196;SDS011;43999;51.660;5.616;2023-01-24T07:36:00;23.90;;;17.50;;
58196;SDS011;43999;51.660;5.616;2023-01-24T07:38:37;22.05;;;19.73;;
58196;SDS011;43999;51.660;5.616;2023-01-24T07:41:08;24.27;;;20.05;;
58196;SDS011;43999;51.660;5.616;2023-01-24T07:43:42;28.02;;;19.92;;
58196;SDS011;43999;51.660;5.616;2023-01-24T07:46:22;23.77;;;19.92;;
58196;SDS011;43999;51.660;5.616;2023-01-24T07:49:03;22.83;;;18.23;;
58196;SDS011;43999;51.660;5.616;2023-01-24T07:51:31;22.40;;;18.05;;
58196;SDS011;43999;51.660;5.616;2023-01-24T07:54:13;25.08;;;20.75;;
58196;SDS011;43999;51.660;5.616;2023-01-24T07:56:47;24.02;;;17.42;;
58196;SDS011;43999;51.660;5.616;2023-01-24T07:59:15;24.50;;;19.42;;
58196;SDS011;43999;51.660;5.616;2023-01-24T08:01:50;25.17;;;19.90;;
58196;SDS011;43999;51.660;5.616;2023-01-24T08:04:20;24.80;;;18.60;;
58196;SDS011;43999;51.660;5.616;2023-01-24T08:06:49;23.30;;;20.23;;
58196;SDS011;43999;51.660;5.616;2023-01-24T08:09:36;27.05;;;20.50;;
58196;SDS011;43999;51.660;5.616;2023-01-24T08:12:03;23.30;;;19.80;;
58196;SDS011;43999;51.660;5.616;2023-01-24T08:14:35;25.65;;;19.27;;
58196;SDS011;43999;51.660;5.616;2023-01-24T08:17:09;23.85;;;18.70;;
58196;SDS011;43999;51.660;5.616;2023-01-24T08:19:43;25.88;;;21.00;;
58196;SDS011;43999;51.660;5.616;2023-01-24T08:22:23;26.65;;;19.08;;
58196;SDS011;43999;51.660;5.616;2023-01-24T08:24:53;25.80;;;20.23;;
58196;SDS011;43999;51.660;5.616;2023-01-24T08:27:22;27.00;;;20.40;;
58196;SDS011;43999;51.660;5.616;2023-01-24T08:29:50;24.75;;;18.90;;
58196;SDS011;43999;51.660;5.616;2023-01-24T08:32:19;26.88;;;21.13;;
58196;SDS011;43999;51.660;5.616;2023-01-24T08:34:49;24.90;;;19.55;;
58196;SDS011;43999;51.660;5.616;2023-01-24T08:37:29;22.58;;;18.88;;
58196;SDS011;43999;51.660;5.616;2023-01-24T08:40:00;27.17;;;20.40;;
58196;SDS011;43999;51.660;5.616;2023-01-24T08:42:31;20.05;;;16.00;;
58196;SDS011;43999;51.660;5.616;2023-01-24T08:45:02;26.42;;;19.42;;
58196;SDS011;43999;51.660;5.616;2023-01-24T08:47:51;26.02;;;20.40;;
58196;SDS011;43999;51.660;5.616;2023-01-24T08:50:27;25.75;;;17.58;;
58196;SDS011;43999;51.660;5.616;2023-01-24T08:53:03;26.95;;;19.20;;
58196;SDS011;43999;51.660;5.616;2023-01-24T08:55:39;22.63;;;18.70;;
58196;SDS011;43999;51.660;5.616;2023-01-24T08:58:10;25.17;;;18.70;;
58196;SDS011;43999;51.660;5.616;2023-01-24T09:00:47;26.08;;;20.30;;
58196;SDS011;43999;51.660;5.616;2023-01-24T09:03:18;22.50;;;17.73;;
58196;SDS011;43999;51.660;5.616;2023-01-24T09:06:00;25.10;;;18.67;;
58196;SDS011;43999;51.660;5.616;2023-01-24T09:08:31;26.10;;;20.33;;
58196;SDS011;43999;51.660;5.616;2023-01-24T09:11:08;26.27;;;22.00;;
58196;SDS011;43999;51.660;5.616;2023-01-24T09:13:37;27.23;;;17.65;;
58196;SDS011;43999;51.660;5.616;2023-01-24T09:16:08;24.50;;;19.05;;
58196;SDS011;43999;51.660;5.616;2023-01-24T09:18:38;22.50;;;17.00;;
58196;SDS011;43999;51.660;5.616;2023-01-24T09:21:07;24.23;;;18.60;;
58196;SDS011;43999;51.660;5.616;2023-01-24T09:23:37;25.13;;;19.75;;
58196;SDS011;43999;51.660;5.616;2023-01-24T09:26:07;26.42;;;17.75;;
58196;SDS011;43999;51.660;5.616;2023-01-24T09:28:40;23.52;;;18.05;;
58196;SDS011;43999;51.660;5.616;2023-01-24T09:31:10;24.33;;;19.90;;
58196;SDS011;43999;51.660;5.616;2023-01-24T09:33:43;22.50;;;19.77;;
58196;SDS011;43999;51.660;5.616;2023-01-24T09:36:29;19.58;;;16.65;;
58196;SDS011;43999;51.660;5.616;2023-01-24T09:39:39;21.23;;;16.00;;
58196;SDS011;43999;51.660;5.616;2023-01-24T09:42:13;19.80;;;16.55;;
58196;SDS011;43999;51.660;5.616;2023-01-24T09:45:18;21.27;;;17.05;;
58196;SDS011;43999;51.660;5.616;2023-01-24T09:48:03;19.55;;;15.80;;
58196;SDS011;43999;51.660;5.616;2023-01-24T09:50:52;21.52;;;15.77;;
58196;SDS011;43999;51.660;5.616;2023-01-24T09:56:38;20.80;;;16.27;;
58196;SDS011;43999;51.660;5.616;2023-01-24T09:59:31;19.40;;;16.05;;
58196;SDS011;43999;51.660;5.616;2023-01-24T10:02:50;19.10;;;13.88;;
58196;SDS011;43999;51.660;5.616;2023-01-24T10:05:23;21.25;;;15.43;;
58196;SDS011;43999;51.660;5.616;2023-01-24T10:08:10;22.65;;;16.13;;
58196;SDS011;43999;51.660;5.616;2023-01-24T10:23:05;21.48;;;16.95;;
58196;SDS011;43999;51.660;5.616;2023-01-24T10:28:51;17.30;;;13.57;;
58196;SDS011;43999;51.660;5.616;2023-01-24T10:31:31;19.52;;;15.38;;
58196;SDS011;43999;51.660;5.616;2023-01-24T10:37:33;19.50;;;14.75;;
58196;SDS011;43999;51.660;5.616;2023-01-24T10:40:13;18.90;;;15.23;;
58196;SDS011;43999;51.660;5.616;2023-01-24T10:42:49;21.33;;;15.60;;
58196;SDS011;43999;51.660;5.616;2023-01-24T10:48:39;18.63;;;14.25;;
58196;SDS011;43999;51.660;5.616;2023-01-24T10:51:32;19.23;;;14.63;;
58196;SDS011;43999;51.660;5.616;2023-01-24T10:54:10;17.70;;;14.80;;
58196;SDS011;43999;51.660;5.616;2023-01-24T10:56:51;21.33;;;14.32;;
58196;SDS011;43999;51.660;5.616;2023-01-24T10:59:40;18.73;;;13.48;;
58196;SDS011;43999;51.660;5.616;2023-01-24T11:02:50;19.23;;;13.85;;
58196;SDS011;43999;51.660;5.616;2023-01-24T11:05:48;28.60;;;14.45;;
58196;SDS011;43999;51.660;5.616;2023-01-24T11:08:24;19.50;;;13.95;;
58196;SDS011;43999;51.660;5.616;2023-01-24T11:11:24;21.77;;;13.65;;
58196;SDS011;43999;51.660;5.616;2023-01-24T11:13:55;20.58;;;15.60;;
58196;SDS011;43999;51.660;5.616;2023-01-24T11:16:30;17.65;;;15.77;;
58196;SDS011;43999;51.660;5.616;2023-01-24T11:19:37;19.23;;;14.30;;
58196;SDS011;43999;51.660;5.616;2023-01-24T11:22:21;22.15;;;13.82;;
58196;SDS011;43999;51.660;5.616;2023-01-24T11:25:13;16.92;;;14.93;;
58196;SDS011;43999;51.660;5.616;2023-01-24T11:27:49;26.17;;;14.98;;
58196;SDS011;43999;51.660;5.616;2023-01-24T11:30:20;15.93;;;12.88;;
58196;SDS011;43999;51.660;5.616;2023-01-24T11:35:52;19.63;;;14.85;;
58196;SDS011;43999;51.660;5.616;2023-01-24T11:38:36;17.33;;;14.00;;
58196;SDS011;43999;51.660;5.616;2023-01-24T11:41:26;17.75;;;12.30;;
58196;SDS011;43999;51.660;5.616;2023-01-24T11:47:56;18.67;;;13.90;;
58196;SDS011;43999;51.660;5.616;2023-01-24T12:00:27;19.27;;;14.38;;
58196;SDS011;43999;51.660;5.616;2023-01-24T12:06:19;18.05;;;12.70;;
58196;SDS011;43999;51.660;5.616;2023-01-24T12:09:22;17.35;;;12.75;;
58196;SDS011;43999;51.660;5.616;2023-01-24T12:21:25;20.17;;;13.95;;
58196;SDS011;43999;51.660;5.616;2023-01-24T12:26:45;16.73;;;12.98;;
58196;SDS011;43999;51.660;5.616;2023-01-24T12:32:42;15.45;;;12.57;;
58196;SDS011;43999;51.660;5.616;2023-01-24T12:35:31;15.38;;;12.80;;
58196;SDS011;43999;51.660;5.616;2023-01-24T12:41:32;19.30;;;13.18;;
58196;SDS011;43999;51.660;5.616;2023-01-24T12:44:15;18.42;;;14.00;;
58196;SDS011;43999;51.660;5.616;2023-01-24T12:47:19;15.73;;;13.68;;
58196;SDS011;43999;51.660;5.616;2023-01-24T12:50:34;17.10;;;13.00;;
58196;SDS011;43999;51.660;5.616;2023-01-24T12:53:21;18.13;;;12.32;;
58196;SDS011;43999;51.660;5.616;2023-01-24T12:59:25;17.13;;;12.73;;
58196;SDS011;43999;51.660;5.616;2023-01-24T13:02:24;24.88;;;14.63;;
58196;SDS011;43999;51.660;5.616;2023-01-24T13:17:16;16.92;;;12.88;;
58196;SDS011;43999;51.660;5.616;2023-01-24T13:23:39;21.90;;;14.00;;
58196;SDS011;43999;51.660;5.616;2023-01-24T13:29:59;20.20;;;14.32;;
58196;SDS011;43999;51.660;5.616;2023-01-24T13:33:30;16.75;;;13.48;;
58196;SDS011;43999;51.660;5.616;2023-01-24T13:36:26;18.92;;;14.90;;
58196;SDS011;43999;51.660;5.616;2023-01-24T13:39:39;18.85;;;14.73;;
58196;SDS011;43999;51.660;5.616;2023-01-24T13:42:45;19.35;;;14.35;;
58196;SDS011;43999;51.660;5.616;2023-01-24T13:51:30;17.65;;;13.40;;
58196;SDS011;43999;51.660;5.616;2023-01-24T13:54:21;15.52;;;13.85;;
58196;SDS011;43999;51.660;5.616;2023-01-24T14:02:41;18.77;;;13.40;;
58196;SDS011;43999;51.660;5.616;2023-01-24T14:05:32;20.00;;;13.55;;
58196;SDS011;43999;51.660;5.616;2023-01-24T14:11:14;17.25;;;13.57;;
58196;SDS011;43999;51.660;5.616;2023-01-24T14:13:54;15.52;;;13.55;;
58196;SDS011;43999;51.660;5.616;2023-01-24T14:17:26;18.17;;;14.25;;
58196;SDS011;43999;51.660;5.616;2023-01-24T14:20:44;19.92;;;15.02;;
58196;SDS011;43999;51.660;5.616;2023-01-24T14:23:26;20.08;;;14.30;;
58196;SDS011;43999;51.660;5.616;2023-01-24T14:25:58;15.75;;;12.88;;
58196;SDS011;43999;51.660;5.616;2023-01-24T14:28:37;18.33;;;14.25;;
58196;SDS011;43999;51.660;5.616;2023-01-24T14:34:05;17.85;;;13.80;;
58196;SDS011;43999;51.660;5.616;2023-01-24T14:36:48;18.73;;;14.32;;
58196;SDS011;43999;51.660;5.616;2023-01-24T14:39:30;18.17;;;14.15;;
58196;SDS011;43999;51.660;5.616;2023-01-24T14:42:01;16.08;;;12.73;;
58196;SDS011;43999;51.660;5.616;2023-01-24T14:44:55;19.73;;;13.63;;
58196;SDS011;43999;51.660;5.616;2023-01-24T14:47:24;16.77;;;14.55;;
58196;SDS011;43999;51.660;5.616;2023-01-24T14:49:59;15.38;;;12.65;;
58196;SDS011;43999;51.660;5.616;2023-01-24T14:52:37;18.75;;;13.57;;
58196;SDS011;43999;51.660;5.616;2023-01-24T15:00:56;19.42;;;15.07;;
58196;SDS011;43999;51.660;5.616;2023-01-24T15:03:48;25.70;;;14.27;;
58196;SDS011;43999;51.660;5.616;2023-01-24T15:06:24;18.50;;;14.57;;
58196;SDS011;43999;51.660;5.616;2023-01-24T15:09:19;17.83;;;14.50;;
58196;SDS011;43999;51.660;5.616;2023-01-24T15:13:28;19.77;;;14.70;;
58196;SDS011;43999;51.660;5.616;2023-01-24T15:16:47;17.35;;;14.75;;
58196;SDS011;43999;51.660;5.616;2023-01-24T15:19:20;17.00;;;15.20;;
58196;SDS011;43999;51.660;5.616;2023-01-24T15:21:55;18.35;;;14.77;;
58196;SDS011;43999;51.660;5.616;2023-01-24T15:24:28;18.35;;;13.55;;
58196;SDS011;43999;51.660;5.616;2023-01-24T15:30:21;18.20;;;16.20;;
58196;SDS011;43999;51.660;5.616;2023-01-24T15:35:45;16.80;;;15.00;;
58196;SDS011;43999;51.660;5.616;2023-01-24T15:38:28;20.05;;;14.90;;
58196;SDS011;43999;51.660;5.616;2023-01-24T15:41:19;21.83;;;15.43;;
58196;SDS011;43999;51.660;5.616;2023-01-24T15:44:06;16.77;;;13.95;;
58196;SDS011;43999;51.660;5.616;2023-01-24T15:46:40;19.17;;;13.98;;
58196;SDS011;43999;51.660;5.616;2023-01-24T15:49:32;21.55;;;16.05;;
58196;SDS011;43999;51.660;5.616;2023-01-24T15:52:27;17.77;;;15.43;;
58196;SDS011;43999;51.660;5.616;2023-01-24T15:55:04;20.95;;;16.38;;
58196;SDS011;43999;51.660;5.616;2023-01-24T15:57:39;19.50;;;12.85;;
58196;SDS011;43999;51.660;5.616;2023-01-24T16:00:23;18.77;;;15.43;;
58196;SDS011;43999;51.660;5.616;2023-01-24T16:02:54;19.10;;;16.38;;
58196;SDS011;43999;51.660;5.616;2023-01-24T16:05:27;21.38;;;16.15;;
58196;SDS011;43999;51.660;5.616;2023-01-24T16:08:12;19.73;;;15.65;;
58196;SDS011;43999;51.660;5.616;2023-01-24T16:10:50;20.40;;;14.85;;
58196;SDS011;43999;51.660;5.616;2023-01-24T16:13:37;17.50;;;14.77;;
58196;SDS011;43999;51.660;5.616;2023-01-24T16:16:10;18.83;;;14.48;;
58196;SDS011;43999;51.660;5.616;2023-01-24T16:18:51;16.52;;;13.90;;
58196;SDS011;43999;51.660;5.616;2023-01-24T16:21:29;20.83;;;14.63;;
58196;SDS011;43999;51.660;5.616;2023-01-24T16:24:18;19.67;;;16.13;;
58196;SDS011;43999;51.660;5.616;2023-01-24T16:26:49;19.92;;;14.40;;
58196;SDS011;43999;51.660;5.616;2023-01-24T16:29:28;21.45;;;15.93;;
58196;SDS011;43999;51.660;5.616;2023-01-24T16:32:23;19.30;;;16.40;;
58196;SDS011;43999;51.660;5.616;2023-01-24T16:35:13;21.30;;;17.15;;
58196;SDS011;43999;51.660;5.616;2023-01-24T16:38:08;22.02;;;16.55;;
58196;SDS011;43999;51.660;5.616;2023-01-24T16:40:51;19.42;;;15.63;;
58196;SDS011;43999;51.660;5.616;2023-01-24T16:43:37;22.90;;;15.95;;
58196;SDS011;43999;51.660;5.616;2023-01-24T16:46:29;18.45;;;14.10;;
58196;SDS011;43999;51.660;5.616;2023-01-24T16:48:58;21.48;;;15.90;;
58196;SDS011;43999;51.660;5.616;2023-01-24T16:51:29;20.35;;;15.38;;
58196;SDS011;43999;51.660;5.616;2023-01-24T16:53:58;20.40;;;16.75;;
58196;SDS011;43999;51.660;5.616;2023-01-24T16:56:40;23.00;;;17.60;;
58196;SDS011;43999;51.660;5.616;2023-01-24T16:59:12;20.52;;;15.50;;
58196;SDS011;43999;51.660;5.616;2023-01-24T17:01:40;21.38;;;15.98;;
58196;SDS011;43999;51.660;5.616;2023-01-24T17:04:34;20.88;;;15.90;;
58196;SDS011;43999;51.660;5.616;2023-01-24T17:07:28;22.83;;;15.43;;
58196;SDS011;43999;51.660;5.616;2023-01-24T17:13:54;23.02;;;17.25;;
58196;SDS011;43999;51.660;5.616;2023-01-24T17:16:35;23.75;;;17.35;;
58196;SDS011;43999;51.660;5.616;2023-01-24T17:19:05;22.10;;;16.98;;
58196;SDS011;43999;51.660;5.616;2023-01-24T17:21:36;23.45;;;18.60;;
58196;SDS011;43999;51.660;5.616;2023-01-24T17:24:14;21.25;;;16.05;;
58196;SDS011;43999;51.660;5.616;2023-01-24T17:27:01;19.05;;;16.48;;
58196;SDS011;43999;51.660;5.616;2023-01-24T17:29:49;20.35;;;15.85;;
58196;SDS011;43999;51.660;5.616;2023-01-24T17:32:32;24.35;;;17.25;;
58196;SDS011;43999;51.660;5.616;2023-01-24T17:35:20;20.52;;;15.82;;
58196;SDS011;43999;51.660;5.616;2023-01-24T17:37:55;26.30;;;16.38;;
58196;SDS011;43999;51.660;5.616;2023-01-24T17:40:26;18.73;;;15.90;;
58196;SDS011;43999;51.660;5.616;2023-01-24T17:43:08;22.92;;;17.15;;
58196;SDS011;43999;51.660;5.616;2023-01-24T17:45:55;18.73;;;14.88;;